Time;durP1;ratioP1;P1;durP2;ratioP2;P2;SDS_P1;SDS_P2;PMS_P1;PMS_P2;Temp;Humidity;BMP_temperature;BMP_pressure;BME280_temperature;BME280_humidity;BME280_pressure;Samples;Min_cycle;Max_cycle;Signal;HPM_P1;HPM_P2
2023/10/14 00:01:26;;;;;;;4.43;2.30;;;25.60;37.10;;;;;;5130954;27;45368;-69
2023/10/14 00:03:54;;;;;;;4.15;2.47;;;25.60;37.10;;;;;;5130641;27;46511;-69
2023/10/14 00:06:21;;;;;;;5.47;2.40;;;25.60;37.20;;;;;;5130370;27;45294;-68
2023/10/14 00:08:55;;;;;;;4.30;2.10;;;25.60;37.30;;;;;;5130640;27;45390;-68
2023/10/14 00:11:22;;;;;;;3.88;2.28;;;25.60;37.30;;;;;;5116907;27;45301;-69
2023/10/14 00:13:49;;;;;;;3.20;2.15;;;25.60;37.40;;;;;;5128579;27;45386;-68
2023/10/14 00:16:29;;;;;;;4.82;2.38;;;25.60;37.40;;;;;;5129763;27;45413;-68
2023/10/14 00:18:56;;;;;;;3.20;2.30;;;25.60;37.40;;;;;;5129797;27;45335;-69
2023/10/14 00:21:24;;;;;;;5.20;2.25;;;25.60;37.40;;;;;;5130544;27;45336;-69
2023/10/14 00:23:55;;;;;;;3.70;2.05;;;25.60;37.40;;;;;;5130082;27;45236;-69
2023/10/14 00:26:23;;;;;;;6.65;2.67;;;25.60;37.50;;;;;;5130112;27;45270;-69
2023/10/14 00:28:54;;;;;;;5.05;2.30;;;25.60;37.50;;;;;;5130312;27;45444;-68
2023/10/14 00:31:22;;;;;;;5.45;2.17;;;25.50;37.50;;;;;;5130525;27;45319;-69
2023/10/14 00:33:52;;;;;;;3.08;2.00;;;25.50;37.50;;;;;;5129758;27;47534;-69
2023/10/14 00:36:20;;;;;;;3.80;2.28;;;25.50;37.60;;;;;;5130300;27;45311;-69
2023/10/14 00:38:55;;;;;;;4.18;2.05;;;25.50;37.70;;;;;;5130185;27;45270;-68
2023/10/14 00:41:26;;;;;;;3.75;2.40;;;25.50;37.70;;;;;;5130175;27;45244;-69
2023/10/14 00:43:53;;;;;;;5.03;2.33;;;25.40;37.70;;;;;;5129824;27;46396;-68
2023/10/14 00:46:23;;;;;;;3.40;2.10;;;25.50;37.90;;;;;;5129751;27;46424;-68
2023/10/14 00:48:51;;;;;;;4.50;2.47;;;25.40;37.80;;;;;;5129940;27;45401;-68
2023/10/14 00:51:19;;;;;;;4.47;2.03;;;25.40;37.80;;;;;;5130215;27;45220;-68
2023/10/14 00:53:52;;;;;;;3.22;1.90;;;25.40;38.00;;;;;;5129962;27;46248;-68
2023/10/14 00:56:20;;;;;;;3.38;1.90;;;25.40;38.00;;;;;;5129686;27;45353;-69
2023/10/14 00:58:56;;;;;;;2.75;2.00;;;25.40;38.00;;;;;;5129896;27;45397;-69
2023/10/14 01:01:28;;;;;;;3.08;2.00;;;25.30;38.00;;;;;;5130128;27;45299;-69
2023/10/14 01:03:58;;;;;;;3.55;2.38;;;25.30;38.00;;;;;;5129712;27;46573;-69
2023/10/14 01:06:34;;;;;;;3.72;1.92;;;25.30;38.00;;;;;;5129480;27;45482;-69
2023/10/14 01:09:10;;;;;;;3.78;2.30;;;25.30;38.10;;;;;;5129694;27;45278;-69
2023/10/14 01:11:37;;;;;;;3.33;1.95;;;25.30;38.20;;;;;;5114290;27;45290;-69
2023/10/14 01:14:06;;;;;;;3.20;2.13;;;25.30;38.10;;;;;;5129371;27;45429;-70
2023/10/14 01:16:34;;;;;;;3.42;2.00;;;25.30;38.10;;;;;;5129298;27;45331;-69
2023/10/14 01:19:03;;;;;;;4.07;2.38;;;25.30;38.20;;;;;;5129767;27;45364;-69
2023/10/14 01:21:31;;;;;;;2.97;2.10;;;25.30;38.20;;;;;;5129372;27;45486;-69
2023/10/14 01:23:59;;;;;;;2.05;1.83;;;25.30;38.20;;;;;;5129186;27;46705;-69
2023/10/14 01:26:27;;;;;;;2.60;2.00;;;25.30;38.30;;;;;;5128383;27;45303;-69
2023/10/14 01:28:59;;;;;;;3.35;2.08;;;25.30;38.40;;;;;;5129337;27;45313;-69
2023/10/14 01:31:43;;;;;;;2.00;1.80;;;25.30;38.50;;;;;;5129527;27;45350;-69
2023/10/14 01:34:24;;;;;;;3.50;2.40;;;25.30;38.60;;;;;;5107807;27;45236;-69
2023/10/14 01:36:51;;;;;;;3.63;1.90;;;25.20;38.50;;;;;;5107026;27;45326;-69
2023/10/14 01:39:26;;;;;;;2.40;2.05;;;25.20;38.50;;;;;;5108171;27;45305;-69
2023/10/14 01:41:54;;;;;;;3.85;2.05;;;25.20;38.60;;;;;;5108930;27;45378;-69
2023/10/14 01:44:22;;;;;;;3.08;2.00;;;25.20;38.70;;;;;;5108261;27;45314;-69
2023/10/14 01:46:50;;;;;;;3.60;2.33;;;25.20;38.80;;;;;;5108192;27;45315;-69
2023/10/14 01:49:19;;;;;;;3.85;2.17;;;25.20;38.90;;;;;;5108459;27;45363;-69
2023/10/14 01:51:49;;;;;;;2.72;2.10;;;25.20;38.80;;;;;;5108615;27;45504;-69
2023/10/14 01:54:16;;;;;;;2.90;1.95;;;25.20;39.00;;;;;;5108086;27;46546;-69
2023/10/14 01:56:46;;;;;;;3.88;2.38;;;25.20;38.90;;;;;;5107994;27;45334;-69
2023/10/14 01:59:13;;;;;;;3.40;1.95;;;25.20;38.90;;;;;;5108185;27;45327;-69
2023/10/14 02:01:42;;;;;;;2.90;2.25;;;25.10;38.90;;;;;;5108333;27;45418;-69
2023/10/14 02:04:09;;;;;;;2.17;1.98;;;25.10;38.90;;;;;;5108099;27;45460;-69
2023/10/14 02:06:36;;;;;;;2.67;2.00;;;25.10;38.90;;;;;;5107976;27;45126;-69
2023/10/14 02:09:05;;;;;;;3.63;2.20;;;25.20;39.00;;;;;;5107898;27;45521;-69
2023/10/14 02:11:35;;;;;;;3.70;2.15;;;25.10;39.10;;;;;;5093096;27;45415;-69
2023/10/14 02:14:06;;;;;;;2.90;1.98;;;25.10;39.10;;;;;;5087344;27;45381;-69
2023/10/14 02:16:40;;;;;;;3.33;2.10;;;25.10;39.10;;;;;;5087334;28;45251;-69
2023/10/14 02:19:18;;;;;;;3.60;2.00;;;25.10;39.30;;;;;;5087389;28;45345;-69
2023/10/14 02:21:57;;;;;;;2.55;1.95;;;25.10;39.40;;;;;;5087772;28;45316;-69
2023/10/14 02:24:25;;;;;;;2.58;1.98;;;25.10;39.30;;;;;;5087121;28;46729;-69
2023/10/14 02:26:57;;;;;;;3.83;2.10;;;25.10;39.50;;;;;;5086968;27;45348;-69
2023/10/14 02:29:26;;;;;;;3.20;2.05;;;25.10;39.60;;;;;;5087086;27;45362;-69
2023/10/14 02:31:52;;;;;;;3.80;2.03;;;25.10;39.50;;;;;;5090248;27;45650;-69
2023/10/14 02:34:19;;;;;;;2.20;1.83;;;25.10;39.60;;;;;;5107465;27;45299;-70
2023/10/14 02:36:52;;;;;;;2.85;2.03;;;25.10;39.50;;;;;;5107466;27;45146;-69
2023/10/14 02:39:26;;;;;;;4.78;2.22;;;25.10;39.60;;;;;;5107608;27;45256;-69
2023/10/14 02:41:58;;;;;;;2.17;1.85;;;25.10;39.80;;;;;;5107824;27;45581;-69
2023/10/14 02:44:30;;;;;;;4.40;1.95;;;25.10;39.90;;;;;;5107743;27;46673;-69
2023/10/14 02:47:02;;;;;;;2.60;1.95;;;25.10;39.80;;;;;;5106724;27;45298;-68
2023/10/14 02:49:35;;;;;;;3.28;2.47;;;25.10;40.30;;;;;;5105683;27;45311;-69
2023/10/14 02:52:08;;;;;;;3.38;2.00;;;25.00;40.30;;;;;;5106933;27;45353;-69
2023/10/14 02:54:35;;;;;;;3.08;1.98;;;25.10;40.20;;;;;;5106922;27;45295;-69
2023/10/14 02:57:12;;;;;;;3.40;2.13;;;25.00;40.30;;;;;;5107239;27;45421;-69
2023/10/14 02:59:44;;;;;;;2.35;2.10;;;25.00;40.20;;;;;;5107278;27;45333;-69
2023/10/14 03:02:24;;;;;;;2.55;2.13;;;25.00;40.20;;;;;;5107379;27;45419;-69
2023/10/14 03:05:08;;;;;;;3.00;2.30;;;25.00;40.80;;;;;;5106973;27;47020;-69
2023/10/14 03:07:43;;;;;;;3.60;2.30;;;25.00;40.30;;;;;;5106423;27;45284;-70
2023/10/14 03:10:12;;;;;;;2.58;2.22;;;25.00;40.50;;;;;;5110731;27;45246;-70
2023/10/14 03:12:39;;;;;;;2.38;1.90;;;25.00;40.70;;;;;;5118443;27;45635;-70
2023/10/14 03:15:18;;;;;;;2.20;1.98;;;25.00;40.60;;;;;;5106929;27;46718;-69
2023/10/14 03:17:52;;;;;;;2.88;2.08;;;25.00;41.30;;;;;;5107004;27;45274;-71
2023/10/14 03:20:34;;;;;;;3.85;2.17;;;25.00;40.80;;;;;;5106798;27;45318;-69
2023/10/14 03:23:03;;;;;;;3.30;1.92;;;25.00;40.70;;;;;;5107380;27;45326;-69
2023/10/14 03:25:30;;;;;;;2.42;2.22;;;25.00;40.80;;;;;;5106660;27;45463;-69
2023/10/14 03:28:08;;;;;;;2.55;2.13;;;25.00;40.80;;;;;;5106859;27;45380;-69
2023/10/14 03:30:38;;;;;;;4.18;2.20;;;25.00;40.70;;;;;;5107037;27;45273;-70
2023/10/14 03:33:09;;;;;;;4.20;2.22;;;25.00;40.80;;;;;;5106882;27;45660;-70
2023/10/14 03:35:36;;;;;;;2.33;1.92;;;24.90;40.80;;;;;;5106495;27;46802;-70
2023/10/14 03:38:11;;;;;;;2.45;2.25;;;25.00;41.10;;;;;;5106629;27;45317;-70
2023/10/14 03:43:19;;;;;;;3.67;2.30;;;24.90;41.00;;;;;;5106763;27;45374;-70
2023/10/14 03:45:53;;;;;;;2.33;1.90;;;24.90;41.10;;;;;;5106552;27;46293;-70
2023/10/14 03:48:21;;;;;;;2.20;2.00;;;24.90;41.20;;;;;;5106560;27;45286;-69
2023/10/14 03:50:48;;;;;;;4.00;2.15;;;25.00;41.10;;;;;;5106852;27;45340;-70
2023/10/14 03:53:17;;;;;;;4.22;2.60;;;24.90;40.90;;;;;;5106801;27;45310;-70
2023/10/14 03:55:43;;;;;;;2.75;2.47;;;24.90;41.20;;;;;;5106248;27;47095;-68
2023/10/14 03:58:12;;;;;;;2.97;1.90;;;24.90;41.00;;;;;;5106255;27;45774;-71
2023/10/14 04:00:39;;;;;;;4.53;2.28;;;24.90;41.00;;;;;;5107916;27;45257;-67
2023/10/14 04:03:11;;;;;;;3.85;2.22;;;24.90;41.20;;;;;;5110107;27;45276;-67
2023/10/14 04:05:41;;;;;;;2.40;2.08;;;24.90;41.20;;;;;;5109603;27;45340;-67
2023/10/14 04:08:09;;;;;;;3.33;1.92;;;24.90;41.10;;;;;;5109938;27;45252;-67
2023/10/14 04:10:43;;;;;;;2.70;2.17;;;24.90;41.20;;;;;;5117416;27;45387;-70
2023/10/14 04:13:13;;;;;;;3.75;2.00;;;24.90;41.20;;;;;;5116882;27;45371;-70
2023/10/14 04:15:50;;;;;;;2.83;2.13;;;24.90;41.50;;;;;;5109666;27;45703;-69
2023/10/14 04:18:24;;;;;;;2.22;1.98;;;24.90;41.30;;;;;;5109613;27;46482;-69
2023/10/14 04:21:11;;;;;;;3.63;2.40;;;24.80;41.50;;;;;;5109754;27;45325;-70
2023/10/14 04:23:48;;;;;;;2.50;2.08;;;24.80;41.30;;;;;;5109998;27;45556;-70
2023/10/14 04:26:21;;;;;;;4.22;2.40;;;24.80;41.40;;;;;;5109331;27;46404;-70
2023/10/14 04:28:54;;;;;;;3.15;2.20;;;24.80;41.60;;;;;;5109718;27;45410;-69
2023/10/14 04:31:38;;;;;;;2.58;2.20;;;24.80;41.60;;;;;;5109640;27;45205;-70
2023/10/14 04:34:07;;;;;;;2.33;2.10;;;24.80;41.70;;;;;;5109830;27;45407;-70
2023/10/14 04:36:37;;;;;;;2.25;1.90;;;24.80;41.60;;;;;;5109253;27;45352;-69
2023/10/14 04:39:19;;;;;;;3.42;2.30;;;24.80;41.60;;;;;;5109417;27;45350;-69
2023/10/14 04:42:21;;;;;;;3.63;1.90;;;24.80;41.80;;;;;;5109469;27;45293;-69
2023/10/14 04:44:54;;;;;;;3.58;2.10;;;24.80;42.40;;;;;;5109769;27;45302;-69
2023/10/14 04:47:27;;;;;;;3.47;2.40;;;24.80;41.80;;;;;;5109134;27;45332;-69
2023/10/14 04:49:57;;;;;;;3.03;2.53;;;24.80;42.00;;;;;;5109015;27;45306;-69
2023/10/14 04:52:26;;;;;;;3.53;2.28;;;24.80;41.90;;;;;;5109434;27;45324;-69
2023/10/14 04:54:54;;;;;;;3.33;2.35;;;24.80;41.80;;;;;;5109326;27;45323;-69
2023/10/14 04:57:22;;;;;;;4.47;2.50;;;24.70;41.90;;;;;;5108983;27;45259;-69
2023/10/14 04:59:53;;;;;;;2.55;2.00;;;24.80;41.80;;;;;;5108848;27;45381;-69
2023/10/14 05:02:21;;;;;;;2.60;2.17;;;24.70;41.70;;;;;;5109078;27;45349;-69
2023/10/14 05:04:51;;;;;;;2.28;1.90;;;24.70;41.80;;;;;;5109238;27;45357;-69
2023/10/14 05:07:20;;;;;;;3.60;2.13;;;24.70;41.80;;;;;;5108532;27;46480;-69
2023/10/14 05:09:58;;;;;;;5.00;2.35;;;24.70;41.80;;;;;;5108904;27;45190;-69
2023/10/14 05:12:26;;;;;;;5.13;2.30;;;24.70;41.90;;;;;;5121054;27;45311;-69
2023/10/14 05:14:55;;;;;;;5.07;2.85;;;24.70;41.90;;;;;;5108374;27;45414;-69
2023/10/14 05:17:25;;;;;;;3.58;2.40;;;24.70;42.50;;;;;;5108010;27;45186;-69
2023/10/14 05:19:58;;;;;;;3.35;2.20;;;24.70;41.90;;;;;;5108616;27;45362;-69
2023/10/14 05:22:37;;;;;;;2.60;2.40;;;24.70;41.90;;;;;;5109186;27;45370;-68
2023/10/14 05:25:15;;;;;;;3.63;2.20;;;24.70;42.20;;;;;;5109186;27;45318;-69
2023/10/14 05:27:55;;;;;;;2.92;2.30;;;24.70;42.00;;;;;;5108353;27;45481;-69
2023/10/14 05:30:23;;;;;;;3.67;2.03;;;24.70;41.90;;;;;;5108072;27;45427;-69
2023/10/14 05:32:51;;;;;;;3.08;2.13;;;24.70;42.20;;;;;;5108295;27;45532;-69
2023/10/14 05:35:18;;;;;;;2.58;2.15;;;24.70;42.00;;;;;;5108579;27;45464;-70
2023/10/14 05:37:47;;;;;;;4.47;2.33;;;24.70;42.00;;;;;;5107977;27;46358;-69
2023/10/14 05:40:15;;;;;;;2.40;2.10;;;24.70;42.20;;;;;;5108042;27;45986;-69
2023/10/14 05:42:45;;;;;;;3.00;2.28;;;24.60;42.30;;;;;;5108494;27;45372;-69
2023/10/14 05:45:12;;;;;;;2.85;2.10;;;24.60;42.20;;;;;;5108468;27;45372;-70
2023/10/14 05:47:42;;;;;;;5.22;2.55;;;24.60;42.40;;;;;;5107978;27;45634;-69
2023/10/14 05:50:14;;;;;;;3.08;2.40;;;24.60;42.30;;;;;;5108322;27;45427;-70
2023/10/14 05:52:46;;;;;;;2.45;2.08;;;24.60;42.40;;;;;;5108300;27;45298;-69
2023/10/14 05:55:19;;;;;;;4.65;2.25;;;24.60;42.50;;;;;;5108306;27;45513;-69
2023/10/14 05:57:47;;;;;;;3.40;2.10;;;24.60;42.70;;;;;;5107984;27;46698;-69
2023/10/14 06:00:21;;;;;;;2.53;2.33;;;24.60;42.30;;;;;;5108010;27;45328;-69
2023/10/14 06:02:49;;;;;;;2.80;2.33;;;24.50;42.40;;;;;;5108378;27;45373;-69
2023/10/14 06:05:17;;;;;;;2.47;2.20;;;24.60;42.30;;;;;;5108287;27;45468;-69
2023/10/14 06:07:47;;;;;;;4.78;2.45;;;24.60;42.50;;;;;;5107906;27;45323;-69
2023/10/14 06:10:20;;;;;;;3.75;2.40;;;24.50;42.50;;;;;;5111847;27;45323;-68
2023/10/14 06:12:50;;;;;;;3.20;2.30;;;24.50;42.20;;;;;;5118051;27;45357;-70
2023/10/14 06:15:18;;;;;;;3.53;2.40;;;24.50;42.50;;;;;;5108195;27;45299;-68
2023/10/14 06:17:46;;;;;;;2.25;2.05;;;24.50;42.50;;;;;;5107780;27;45316;-69
2023/10/14 06:20:14;;;;;;;2.78;2.00;;;24.50;42.30;;;;;;5107788;27;45469;-69
2023/10/14 06:22:41;;;;;;;3.22;2.47;;;24.50;42.60;;;;;;5108089;27;45187;-70
2023/10/14 06:25:15;;;;;;;2.53;2.15;;;24.50;42.50;;;;;;5107824;27;45272;-69
2023/10/14 06:27:45;;;;;;;3.20;2.25;;;24.50;42.50;;;;;;5107172;27;45454;-68
2023/10/14 06:30:19;;;;;;;2.85;2.17;;;24.50;42.50;;;;;;5107203;27;45584;-69
2023/10/14 06:32:47;;;;;;;2.72;2.28;;;24.50;42.60;;;;;;5106857;27;45224;-69
2023/10/14 06:35:15;;;;;;;2.35;2.10;;;24.50;42.50;;;;;;5108089;27;45386;-69
2023/10/14 06:37:45;;;;;;;2.75;2.55;;;24.50;42.40;;;;;;5107576;27;45314;-69
2023/10/14 06:40:14;;;;;;;3.33;2.30;;;24.50;42.50;;;;;;5107529;27;45393;-69
2023/10/14 06:42:43;;;;;;;2.65;2.20;;;24.50;42.60;;;;;;5107623;27;45301;-68
2023/10/14 06:45:13;;;;;;;2.70;2.25;;;24.50;42.60;;;;;;5107683;27;45308;-69
2023/10/14 06:47:45;;;;;;;2.88;2.42;;;24.50;42.70;;;;;;5107282;27;46897;-69
2023/10/14 06:50:13;;;;;;;3.03;2.20;;;24.50;42.60;;;;;;5107534;27;45322;-71
2023/10/14 06:52:40;;;;;;;3.55;2.33;;;24.40;42.50;;;;;;5107550;27;45484;-69
2023/10/14 06:55:07;;;;;;;4.45;2.05;;;24.50;42.70;;;;;;5107930;27;45595;-69
2023/10/14 06:57:36;;;;;;;3.47;2.30;;;24.40;42.70;;;;;;5107762;27;45298;-69
2023/10/14 07:00:11;;;;;;;3.08;2.00;;;24.40;42.90;;;;;;5107032;27;45975;-69
2023/10/14 07:02:38;;;;;;;3.00;2.50;;;24.40;42.70;;;;;;5107502;27;45374;-69
2023/10/14 07:05:06;;;;;;;3.42;2.40;;;24.40;42.60;;;;;;5107630;27;45323;-69
2023/10/14 07:07:33;;;;;;;3.88;2.17;;;24.50;42.70;;;;;;5106803;27;46476;-69
2023/10/14 07:10:00;;;;;;;3.78;2.20;;;24.50;42.60;;;;;;5108951;27;45242;-68
2023/10/14 07:12:28;;;;;;;3.65;2.40;;;24.50;42.60;;;;;;5119972;27;45235;-69
2023/10/14 07:14:56;;;;;;;2.20;1.83;;;24.50;43.20;;;;;;5107350;27;45291;-69
2023/10/14 07:17:25;;;;;;;3.33;2.20;;;24.50;42.50;;;;;;5106908;27;45316;-69
2023/10/14 07:19:52;;;;;;;2.22;2.03;;;24.50;42.50;;;;;;5107028;27;45552;-69
2023/10/14 07:22:20;;;;;;;3.45;2.30;;;24.50;42.50;;;;;;5107115;27;45397;-69
2023/10/14 07:24:47;;;;;;;3.30;2.03;;;24.50;42.60;;;;;;5107361;27;45233;-69
2023/10/14 07:27:17;;;;;;;3.63;2.20;;;24.50;42.50;;;;;;5106139;27;46356;-69
2023/10/14 07:29:45;;;;;;;2.95;1.95;;;24.50;42.40;;;;;;5106056;27;45384;-69
2023/10/14 07:32:15;;;;;;;2.75;1.90;;;24.50;42.40;;;;;;5111722;27;45255;-69
2023/10/14 07:34:42;;;;;;;3.47;2.17;;;24.50;42.40;;;;;;5126654;27;45539;-69
2023/10/14 07:37:10;;;;;;;2.95;2.05;;;24.50;43.10;;;;;;5130832;27;45335;-69
2023/10/14 07:39:36;;;;;;;3.45;1.95;;;24.50;42.70;;;;;;5131178;27;45248;-69
2023/10/14 07:42:09;;;;;;;3.17;2.28;;;24.50;42.60;;;;;;5130964;27;45265;-69
2023/10/14 07:44:36;;;;;;;1.92;1.70;;;24.50;42.60;;;;;;5131214;27;45322;-69
2023/10/14 07:47:05;;;;;;;3.42;2.67;;;24.50;42.70;;;;;;5130682;27;46533;-69
2023/10/14 07:49:33;;;;;;;3.90;2.20;;;24.50;42.80;;;;;;5130986;27;45433;-69
2023/10/14 07:52:01;;;;;;;2.30;2.03;;;24.50;42.80;;;;;;5131012;27;45277;-68
2023/10/14 07:54:29;;;;;;;4.32;2.30;;;24.50;42.60;;;;;;5131302;27;45253;-69
2023/10/14 07:56:56;;;;;;;2.15;1.98;;;24.50;42.50;;;;;;5130690;27;46714;-69
2023/10/14 07:59:23;;;;;;;5.32;2.53;;;24.50;42.70;;;;;;5130746;27;45357;-68
2023/10/14 08:01:50;;;;;;;2.50;2.25;;;24.50;42.90;;;;;;5130775;27;45329;-68
2023/10/14 08:04:18;;;;;;;2.78;2.20;;;24.50;42.80;;;;;;5130810;27;45127;-69
2023/10/14 08:06:46;;;;;;;2.42;2.15;;;24.50;43.20;;;;;;5130560;27;45516;-69
2023/10/14 08:09:23;;;;;;;2.60;2.40;;;24.50;42.90;;;;;;5130258;27;45430;-68
2023/10/14 08:11:51;;;;;;;5.38;2.10;;;24.50;43.20;;;;;;5121840;27;45274;-69
2023/10/14 08:14:19;;;;;;;2.53;2.20;;;24.50;43.50;;;;;;5130832;27;45251;-68
2023/10/14 08:16:47;;;;;;;3.10;2.17;;;24.50;43.30;;;;;;5129345;27;46315;-68
2023/10/14 08:19:14;;;;;;;2.05;1.83;;;24.40;43.30;;;;;;5129594;27;45326;-69
2023/10/14 08:21:41;;;;;;;2.58;2.00;;;24.50;43.40;;;;;;5129465;27;45360;-68
2023/10/14 08:24:14;;;;;;;2.30;2.10;;;24.40;43.40;;;;;;5130646;27;45214;-68
2023/10/14 08:26:41;;;;;;;3.78;2.20;;;24.40;43.40;;;;;;5129855;27;45570;-69
2023/10/14 08:29:08;;;;;;;3.90;2.40;;;24.40;43.30;;;;;;5130008;27;45337;-68
2023/10/14 08:31:37;;;;;;;4.53;2.45;;;24.50;43.40;;;;;;5130174;27;45325;-68
2023/10/14 08:34:07;;;;;;;2.85;2.10;;;24.40;43.30;;;;;;5129790;27;45363;-68
2023/10/14 08:36:33;;;;;;;2.58;1.77;;;24.40;43.40;;;;;;5129565;27;45443;-70
2023/10/14 08:39:00;;;;;;;4.85;2.20;;;24.40;43.50;;;;;;5129693;27;46987;-68
2023/10/14 08:41:28;;;;;;;2.60;1.95;;;24.40;43.50;;;;;;5129631;27;45212;-68
2023/10/14 08:43:56;;;;;;;4.43;2.53;;;24.40;43.60;;;;;;5130094;27;45314;-68
2023/10/14 08:46:29;;;;;;;2.88;2.58;;;24.40;43.60;;;;;;5128583;27;46359;-67
2023/10/14 08:48:55;;;;;;;3.60;2.40;;;24.40;44.60;;;;;;5129427;27;45190;-68
2023/10/14 08:51:24;;;;;;;2.88;2.28;;;24.40;43.90;;;;;;5129458;27;45420;-68
2023/10/14 08:53:53;;;;;;;4.53;2.08;;;24.40;43.80;;;;;;5129347;27;45574;-68
2023/10/14 08:56:22;;;;;;;3.13;2.20;;;24.40;44.20;;;;;;5125413;27;46348;-68
2023/10/14 08:58:50;;;;;;;3.00;2.10;;;24.40;44.00;;;;;;5128797;27;45202;-68
2023/10/14 09:01:17;;;;;;;3.13;2.20;;;24.40;44.40;;;;;;5126484;27;45330;-68
2023/10/14 09:03:45;;;;;;;2.63;2.13;;;24.40;44.40;;;;;;5129729;27;45481;-68
2023/10/14 09:06:12;;;;;;;3.13;2.30;;;24.40;44.20;;;;;;5128878;27;46480;-68
2023/10/14 09:08:39;;;;;;;3.03;2.10;;;24.30;44.00;;;;;;5129177;27;45275;-69
2023/10/14 09:11:06;;;;;;;2.50;2.10;;;24.40;44.30;;;;;;5126309;27;45320;-69
2023/10/14 09:13:33;;;;;;;2.53;2.00;;;24.30;44.40;;;;;;5127428;27;45433;-69
2023/10/14 09:16:01;;;;;;;3.28;2.40;;;24.30;44.10;;;;;;5128724;27;45426;-67
2023/10/14 09:18:28;;;;;;;4.18;2.10;;;24.30;44.20;;;;;;5129447;27;45283;-69
2023/10/14 09:20:55;;;;;;;4.28;2.17;;;24.30;44.50;;;;;;5129495;27;45254;-68
2023/10/14 09:23:27;;;;;;;2.67;2.10;;;24.30;44.40;;;;;;5129227;27;45417;-68
2023/10/14 09:25:55;;;;;;;3.75;1.90;;;24.30;44.40;;;;;;5128520;27;46397;-68
2023/10/14 09:28:23;;;;;;;3.35;2.05;;;24.30;44.60;;;;;;5128985;27;45376;-67
2023/10/14 09:30:50;;;;;;;3.05;2.05;;;24.30;44.70;;;;;;5128582;27;45393;-68
2023/10/14 09:33:19;;;;;;;2.38;2.10;;;24.30;44.50;;;;;;5129177;27;45334;-67
2023/10/14 09:35:48;;;;;;;4.38;2.40;;;24.20;44.60;;;;;;5128913;27;45370;-68
2023/10/14 09:38:18;;;;;;;2.20;2.00;;;24.20;44.60;;;;;;5129105;27;45542;-68
2023/10/14 09:40:47;;;;;;;7.90;2.10;;;24.30;44.80;;;;;;5129118;27;45154;-68
2023/10/14 09:43:14;;;;;;;1.95;1.75;;;24.20;44.70;;;;;;5129159;27;45429;-68
2023/10/14 09:45:41;;;;;;;3.30;2.00;;;24.20;44.80;;;;;;5128797;27;45452;-67
2023/10/14 09:48:09;;;;;;;2.30;1.88;;;24.20;44.70;;;;;;5128905;27;45204;-67
2023/10/14 09:50:37;;;;;;;2.58;2.20;;;24.20;44.70;;;;;;5129145;27;45149;-67
2023/10/14 09:53:04;;;;;;;2.85;2.08;;;24.20;44.70;;;;;;5129172;27;45376;-69
2023/10/14 09:55:31;;;;;;;2.92;2.40;;;24.20;44.70;;;;;;5128540;27;45369;-68
2023/10/14 09:57:58;;;;;;;2.15;1.80;;;24.20;44.70;;;;;;5128309;27;45371;-68
2023/10/14 10:00:25;;;;;;;3.40;1.98;;;24.20;44.70;;;;;;5128300;27;45329;-69
2023/10/14 10:02:52;;;;;;;3.70;2.08;;;24.20;44.80;;;;;;5128156;27;45450;-67
2023/10/14 10:05:20;;;;;;;2.20;1.85;;;24.20;44.70;;;;;;5128241;27;45601;-68
2023/10/14 10:07:55;;;;;;;2.78;2.10;;;24.20;44.70;;;;;;5128422;27;45301;-68
2023/10/14 10:10:25;;;;;;;2.58;1.80;;;24.20;44.60;;;;;;5128670;27;45436;-68
2023/10/14 10:12:55;;;;;;;3.95;2.00;;;24.20;44.60;;;;;;5117306;27;45228;-68
2023/10/14 10:15:22;;;;;;;2.50;2.05;;;24.20;44.50;;;;;;5107523;27;46205;-68
2023/10/14 10:17:57;;;;;;;2.55;1.90;;;24.20;44.60;;;;;;5107450;27;45267;-68
2023/10/14 10:20:31;;;;;;;3.08;2.05;;;24.30;44.70;;;;;;5108272;27;45318;-69
2023/10/14 10:23:01;;;;;;;2.92;1.90;;;24.30;44.60;;;;;;5107884;27;45655;-66
2023/10/14 10:25:49;;;;;;;2.35;2.10;;;24.30;44.50;;;;;;5107412;27;46675;-69
2023/10/14 10:28:38;;;;;;;2.72;1.88;;;24.30;44.60;;;;;;5107637;27;45349;-68
2023/10/14 10:31:07;;;;;;;3.65;2.00;;;24.30;44.70;;;;;;5107707;27;45272;-67
2023/10/14 10:33:52;;;;;;;2.60;1.80;;;24.30;44.60;;;;;;5107549;27;45312;-68
2023/10/14 10:36:24;;;;;;;2.88;1.95;;;24.30;44.70;;;;;;5107211;27;46657;-68
2023/10/14 10:38:54;;;;;;;2.10;1.88;;;24.30;44.60;;;;;;5107396;27;45284;-68
2023/10/14 10:41:25;;;;;;;3.30;2.00;;;24.30;44.70;;;;;;5107466;27;45340;-68
2023/10/14 10:43:52;;;;;;;3.50;1.80;;;24.30;44.60;;;;;;5107694;27;45387;-68
2023/10/14 10:46:31;;;;;;;4.55;2.42;;;24.30;44.60;;;;;;5107230;27;45401;-68
2023/10/14 10:48:59;;;;;;;2.90;2.08;;;24.30;44.70;;;;;;5107707;27;45366;-68
2023/10/14 10:51:29;;;;;;;2.88;1.90;;;24.20;44.70;;;;;;5107466;27;45212;-68
2023/10/14 10:53:59;;;;;;;2.60;1.70;;;24.20;45.60;;;;;;5107610;27;45544;-68
2023/10/14 10:56:28;;;;;;;2.45;1.88;;;24.20;45.00;;;;;;5115500;27;46623;-71
2023/10/14 10:58:56;;;;;;;2.45;1.90;;;24.20;45.00;;;;;;5124395;27;45374;-71
2023/10/14 11:01:23;;;;;;;3.28;1.75;;;24.20;45.00;;;;;;5128069;27;45322;-70
2023/10/14 11:03:51;;;;;;;3.70;1.50;;;24.20;47.40;;;;;;5127964;27;45529;-73
2023/10/14 11:06:19;;;;;;;2.40;1.33;;;24.10;49.00;;;;;;5126542;27;45439;-72
2023/10/14 11:08:46;;;;;;;1.63;0.80;;;24.00;50.20;;;;;;5126578;27;45354;-69
2023/10/14 11:11:15;;;;;;;4.00;1.10;;;23.90;50.70;;;;;;5124466;27;45482;-69
2023/10/14 11:13:42;;;;;;;5.95;1.10;;;23.80;50.10;;;;;;5109507;27;45469;-69
2023/10/14 11:16:12;;;;;;;4.93;0.95;;;23.80;49.90;;;;;;5106826;27;45381;-69
2023/10/14 11:18:46;;;;;;;1.00;0.90;;;23.80;49.70;;;;;;5106898;27;45318;-68
2023/10/14 11:21:14;;;;;;;2.33;0.77;;;23.80;49.50;;;;;;5108137;27;45411;-69
2023/10/14 11:23:41;;;;;;;4.60;1.00;;;23.90;49.20;;;;;;5123637;27;45472;-70
2023/10/14 11:26:12;;;;;;;2.17;0.75;;;23.90;49.20;;;;;;5125417;27;46384;-69
2023/10/14 11:28:44;;;;;;;2.42;0.88;;;23.80;48.70;;;;;;5123735;27;45363;-68
2023/10/14 11:31:11;;;;;;;1.05;1.00;;;23.90;49.10;;;;;;5126243;27;45458;-67
2023/10/14 11:33:38;;;;;;;4.80;0.93;;;23.90;48.60;;;;;;5109909;27;45389;-68
2023/10/14 11:36:05;;;;;;;3.42;0.85;;;23.90;48.90;;;;;;5120531;27;46384;-68
2023/10/14 11:38:33;;;;;;;0.88;0.55;;;23.90;48.60;;;;;;5120333;27;45349;-68
2023/10/14 11:41:02;;;;;;;1.38;0.60;;;23.90;48.70;;;;;;5126848;27;45366;-67
2023/10/14 11:43:30;;;;;;;1.60;0.93;;;23.90;48.80;;;;;;5126920;27;45633;-68
2023/10/14 11:45:58;;;;;;;3.70;0.80;;;23.90;48.50;;;;;;5109241;27;45272;-68
2023/10/14 11:48:26;;;;;;;3.58;0.77;;;23.90;48.90;;;;;;5125336;27;45437;-69
2023/10/14 11:50:55;;;;;;;1.40;0.85;;;23.90;48.30;;;;;;5126712;27;45329;-68
2023/10/14 11:53:27;;;;;;;2.58;0.88;;;23.80;48.60;;;;;;5119178;27;45244;-68
2023/10/14 11:55:58;;;;;;;2.38;0.70;;;23.80;48.30;;;;;;5127192;27;45394;-68
2023/10/14 11:58:30;;;;;;;4.07;0.68;;;23.80;48.10;;;;;;5127055;27;45315;-69
2023/10/14 12:00:58;;;;;;;2.05;0.93;;;23.80;48.40;;;;;;5119239;27;45347;-67
2023/10/14 12:03:26;;;;;;;1.67;0.68;;;23.80;48.00;;;;;;5118467;27;45509;-68
2023/10/14 12:05:57;;;;;;;6.28;1.60;;;23.80;48.10;;;;;;5124490;27;45479;-69
2023/10/14 12:08:25;;;;;;;2.63;1.30;;;23.80;48.40;;;;;;5125994;27;45329;-69
2023/10/14 12:10:52;;;;;;;4.43;1.40;;;23.80;48.30;;;;;;5111426;27;45527;-69
2023/10/14 12:13:19;;;;;;;3.20;1.52;;;23.80;48.40;;;;;;5108044;27;45576;-70
2023/10/14 12:15:46;;;;;;;5.60;1.30;;;23.80;48.30;;;;;;5118054;27;46303;-69
2023/10/14 12:18:14;;;;;;;4.93;1.30;;;23.80;48.20;;;;;;5127232;27;45317;-67
2023/10/14 12:20:45;;;;;;;4.38;1.10;;;23.80;48.50;;;;;;5123544;27;45488;-68
2023/10/14 12:23:12;;;;;;;6.40;1.17;;;23.80;48.50;;;;;;5129177;27;45418;-67
2023/10/14 12:25:39;;;;;;;5.63;1.40;;;23.80;48.50;;;;;;5129261;27;46368;-69
2023/10/14 12:28:06;;;;;;;4.18;1.00;;;23.80;49.10;;;;;;5130545;27;45330;-68
2023/10/14 12:30:40;;;;;;;2.08;0.82;;;23.80;48.50;;;;;;5129416;27;45341;-68
2023/10/14 12:33:07;;;;;;;1.73;1.10;;;23.80;48.30;;;;;;5130395;27;45524;-68
2023/10/14 12:35:40;;;;;;;10.15;1.17;;;23.80;48.50;;;;;;5130028;27;46423;-70
2023/10/14 12:38:11;;;;;;;5.65;1.77;;;23.80;48.30;;;;;;5123488;27;45451;-69
2023/10/14 12:40:39;;;;;;;7.40;1.15;;;23.80;48.30;;;;;;5123554;27;45512;-68
2023/10/14 12:43:06;;;;;;;12.07;2.90;;;23.80;48.40;;;;;;5130342;27;45368;-68
2023/10/14 12:45:34;;;;;;;12.85;4.80;;;23.80;48.60;;;;;;5129202;27;45539;-71
2023/10/14 12:48:09;;;;;;;14.57;3.35;;;23.70;48.60;;;;;;5130435;27;45322;-69
2023/10/14 12:50:40;;;;;;;15.70;3.45;;;23.70;48.80;;;;;;5130099;27;45184;-69
2023/10/14 12:53:08;;;;;;;8.57;3.15;;;23.70;48.80;;;;;;5128920;27;45379;-70
2023/10/14 12:55:35;;;;;;;6.68;2.55;;;23.70;48.70;;;;;;5127824;27;47777;-70
2023/10/14 12:58:03;;;;;;;9.18;2.90;;;23.70;48.80;;;;;;5129005;27;45258;-70
2023/10/14 13:00:30;;;;;;;12.02;2.92;;;23.70;48.60;;;;;;5128241;27;45233;-70
2023/10/14 13:02:57;;;;;;;8.20;2.50;;;23.70;48.60;;;;;;5128670;27;45447;-70